sensor_id;sensor_type;location;lat;lon;timestamp;pressure;altitude;pressure_sealevel;temperature;humidity
54512;BME280;40419;47.438;19.026;2023-08-07T00:01:49;98959.56;;;14.87;100.00
54512;BME280;40419;47.438;19.026;2023-08-07T00:04:17;98958.44;;;14.83;100.00
54512;BME280;40419;47.438;19.026;2023-08-07T00:06:43;98954.19;;;14.92;100.00
54512;BME280;40419;47.438;19.026;2023-08-07T00:09:08;98958.38;;;15.00;100.00
54512;BME280;40419;47.438;19.026;2023-08-07T00:11:36;98941.38;;;14.93;100.00
54512;BME280;40419;47.438;19.026;2023-08-07T00:14:04;98946.91;;;14.98;100.00
54512;BME280;40419;47.438;19.026;2023-08-07T00:16:34;98937.66;;;14.99;100.00
54512;BME280;40419;47.438;19.026;2023-08-07T00:19:02;98943.44;;;15.02;100.00
54512;BME280;40419;47.438;19.026;2023-08-07T00:21:30;98940.63;;;14.97;100.00
54512;BME280;40419;47.438;19.026;2023-08-07T00:23:55;98945.31;;;15.02;100.00
54512;BME280;40419;47.438;19.026;2023-08-07T00:26:21;98945.91;;;15.04;100.00
54512;BME280;40419;47.438;19.026;2023-08-07T00:28:49;98951.09;;;15.05;100.00
54512;BME280;40419;47.438;19.026;2023-08-07T00:31:20;98949.00;;;15.13;100.00
54512;BME280;40419;47.438;19.026;2023-08-07T00:33:45;98951.66;;;15.07;100.00
54512;BME280;40419;47.438;19.026;2023-08-07T00:36:14;98950.25;;;15.05;100.00
54512;BME280;40419;47.438;19.026;2023-08-07T00:38:41;98943.56;;;15.13;100.00
54512;BME280;40419;47.438;19.026;2023-08-07T00:41:12;98941.97;;;14.95;100.00
54512;BME280;40419;47.438;19.026;2023-08-07T00:43:37;98949.75;;;15.08;100.00
54512;BME280;40419;47.438;19.026;2023-08-07T00:46:04;98945.13;;;15.09;100.00
54512;BME280;40419;47.438;19.026;2023-08-07T00:48:34;98942.53;;;14.97;100.00
54512;BME280;40419;47.438;19.026;2023-08-07T00:51:00;98950.47;;;14.98;100.00
54512;BME280;40419;47.438;19.026;2023-08-07T00:53:26;98946.59;;;14.94;100.00
54512;BME280;40419;47.438;19.026;2023-08-07T00:55:52;98951.72;;;14.91;100.00
54512;BME280;40419;47.438;19.026;2023-08-07T00:58:18;98954.84;;;14.99;100.00
54512;BME280;40419;47.438;19.026;2023-08-07T01:00:48;98957.69;;;14.87;100.00
54512;BME280;40419;47.438;19.026;2023-08-07T01:03:16;98958.88;;;14.97;100.00
54512;BME280;40419;47.438;19.026;2023-08-07T01:05:44;98957.09;;;14.85;100.00
54512;BME280;40419;47.438;19.026;2023-08-07T01:08:12;98954.72;;;14.89;100.00
54512;BME280;40419;47.438;19.026;2023-08-07T01:14:00;98960.91;;;14.84;100.00
54512;BME280;40419;47.438;19.026;2023-08-07T01:19:29;98958.59;;;14.93;100.00
54512;BME280;40419;47.438;19.026;2023-08-07T01:22:17;98948.75;;;14.92;100.00
54512;BME280;40419;47.438;19.026;2023-08-07T01:24:48;98946.66;;;14.99;100.00
54512;BME280;40419;47.438;19.026;2023-08-07T01:27:23;98964.13;;;15.03;100.00
54512;BME280;40419;47.438;19.026;2023-08-07T01:35:05;98964.66;;;15.00;100.00
54512;BME280;40419;47.438;19.026;2023-08-07T01:37:38;98972.91;;;15.05;100.00
54512;BME280;40419;47.438;19.026;2023-08-07T01:40:05;98977.00;;;15.08;100.00
54512;BME280;40419;47.438;19.026;2023-08-07T01:42:36;98977.06;;;14.91;100.00
54512;BME280;40419;47.438;19.026;2023-08-07T01:45:05;98975.94;;;15.09;100.00
54512;BME280;40419;47.438;19.026;2023-08-07T01:47:34;98960.97;;;14.89;100.00
54512;BME280;40419;47.438;19.026;2023-08-07T01:50:02;98973.41;;;15.02;100.00
54512;BME280;40419;47.438;19.026;2023-08-07T01:52:28;98967.38;;;15.00;100.00
54512;BME280;40419;47.438;19.026;2023-08-07T01:54:56;98969.28;;;15.00;100.00
54512;BME280;40419;47.438;19.026;2023-08-07T01:57:21;98980.63;;;14.92;100.00
54512;BME280;40419;47.438;19.026;2023-08-07T01:59:54;98980.19;;;15.00;100.00
54512;BME280;40419;47.438;19.026;2023-08-07T02:02:21;98968.91;;;15.13;100.00
54512;BME280;40419;47.438;19.026;2023-08-07T02:04:47;98966.63;;;14.83;100.00
54512;BME280;40419;47.438;19.026;2023-08-07T02:07:13;98967.63;;;14.99;100.00
54512;BME280;40419;47.438;19.026;2023-08-07T02:09:41;98976.91;;;14.98;100.00
54512;BME280;40419;47.438;19.026;2023-08-07T02:12:10;98985.63;;;15.00;100.00
54512;BME280;40419;47.438;19.026;2023-08-07T02:14:38;98974.84;;;14.88;100.00
54512;BME280;40419;47.438;19.026;2023-08-07T02:17:06;98981.72;;;14.91;100.00
54512;BME280;40419;47.438;19.026;2023-08-07T02:19:31;98978.28;;;14.78;100.00
54512;BME280;40419;47.438;19.026;2023-08-07T02:21:59;98981.06;;;14.83;100.00
54512;BME280;40419;47.438;19.026;2023-08-07T02:24:27;98976.38;;;14.79;100.00
54512;BME280;40419;47.438;19.026;2023-08-07T02:26:55;98974.81;;;14.66;100.00
54512;BME280;40419;47.438;19.026;2023-08-07T02:29:23;98988.88;;;14.97;100.00
54512;BME280;40419;47.438;19.026;2023-08-07T02:31:50;98976.63;;;14.77;100.00
54512;BME280;40419;47.438;19.026;2023-08-07T02:34:18;98980.88;;;14.68;100.00
54512;BME280;40419;47.438;19.026;2023-08-07T02:36:46;98974.41;;;14.57;100.00
54512;BME280;40419;47.438;19.026;2023-08-07T02:39:13;98978.63;;;14.65;100.00
54512;BME280;40419;47.438;19.026;2023-08-07T02:41:41;98962.75;;;14.79;100.00
54512;BME280;40419;47.438;19.026;2023-08-07T02:44:10;98972.59;;;14.80;100.00
54512;BME280;40419;47.438;19.026;2023-08-07T02:46:39;98969.06;;;14.62;100.00
54512;BME280;40419;47.438;19.026;2023-08-07T02:49:06;98984.91;;;14.65;100.00
54512;BME280;40419;47.438;19.026;2023-08-07T02:51:32;98975.66;;;14.66;100.00
54512;BME280;40419;47.438;19.026;2023-08-07T02:54:00;98976.72;;;14.65;100.00
54512;BME280;40419;47.438;19.026;2023-08-07T02:56:28;98987.03;;;14.80;100.00
54512;BME280;40419;47.438;19.026;2023-08-07T02:58:54;98979.78;;;14.69;100.00
54512;BME280;40419;47.438;19.026;2023-08-07T03:01:22;98985.31;;;14.57;100.00
54512;BME280;40419;47.438;19.026;2023-08-07T03:03:50;98983.72;;;14.78;100.00
54512;BME280;40419;47.438;19.026;2023-08-07T03:06:16;98990.94;;;14.67;100.00
54512;BME280;40419;47.438;19.026;2023-08-07T03:08:41;98997.59;;;14.60;100.00
54512;BME280;40419;47.438;19.026;2023-08-07T03:11:08;98993.41;;;14.69;100.00
54512;BME280;40419;47.438;19.026;2023-08-07T03:13:36;98998.59;;;14.53;100.00
54512;BME280;40419;47.438;19.026;2023-08-07T03:16:03;98999.44;;;14.54;100.00
54512;BME280;40419;47.438;19.026;2023-08-07T03:18:29;98991.13;;;14.44;100.00
54512;BME280;40419;47.438;19.026;2023-08-07T03:20:58;99005.69;;;14.54;100.00
54512;BME280;40419;47.438;19.026;2023-08-07T03:23:25;98987.88;;;14.47;100.00
54512;BME280;40419;47.438;19.026;2023-08-07T03:28:28;99001.75;;;14.45;100.00
54512;BME280;40419;47.438;19.026;2023-08-07T03:30:56;98999.19;;;14.56;100.00
54512;BME280;40419;47.438;19.026;2023-08-07T03:33:22;99003.41;;;14.46;100.00
54512;BME280;40419;47.438;19.026;2023-08-07T03:35:47;98994.75;;;14.49;100.00
54512;BME280;40419;47.438;19.026;2023-08-07T03:38:13;98999.94;;;14.51;100.00
54512;BME280;40419;47.438;19.026;2023-08-07T03:40:38;99006.03;;;14.41;100.00
54512;BME280;40419;47.438;19.026;2023-08-07T03:43:07;99011.25;;;14.43;100.00
54512;BME280;40419;47.438;19.026;2023-08-07T03:45:38;99007.03;;;14.69;100.00
54512;BME280;40419;47.438;19.026;2023-08-07T03:48:06;99008.25;;;14.78;100.00
54512;BME280;40419;47.438;19.026;2023-08-07T03:50:34;99015.88;;;14.98;100.00
54512;BME280;40419;47.438;19.026;2023-08-07T03:53:04;99025.25;;;15.07;100.00
54512;BME280;40419;47.438;19.026;2023-08-07T03:55:40;99025.72;;;15.71;97.51
54512;BME280;40419;47.438;19.026;2023-08-07T03:58:07;99032.47;;;16.50;92.96
54512;BME280;40419;47.438;19.026;2023-08-07T04:00:40;99035.31;;;16.33;90.98
54512;BME280;40419;47.438;19.026;2023-08-07T04:03:08;99043.50;;;16.28;93.60
54512;BME280;40419;47.438;19.026;2023-08-07T04:05:34;99037.94;;;16.18;94.22
54512;BME280;40419;47.438;19.026;2023-08-07T04:08:04;99041.31;;;15.75;95.14
54512;BME280;40419;47.438;19.026;2023-08-07T04:10:32;99034.13;;;15.64;97.60
54512;BME280;40419;47.438;19.026;2023-08-07T04:12:57;99049.38;;;15.16;100.00
54512;BME280;40419;47.438;19.026;2023-08-07T04:15:28;99054.22;;;15.14;99.89
54512;BME280;40419;47.438;19.026;2023-08-07T04:17:54;99060.81;;;14.96;100.00
54512;BME280;40419;47.438;19.026;2023-08-07T04:20:24;99065.59;;;15.05;100.00
54512;BME280;40419;47.438;19.026;2023-08-07T04:22:56;99060.81;;;14.96;100.00
54512;BME280;40419;47.438;19.026;2023-08-07T04:25:22;99053.84;;;15.05;100.00
54512;BME280;40419;47.438;19.026;2023-08-07T04:27:47;99057.72;;;15.53;100.00
54512;BME280;40419;47.438;19.026;2023-08-07T04:30:15;99054.00;;;15.59;98.26
54512;BME280;40419;47.438;19.026;2023-08-07T04:32:43;99048.59;;;15.65;97.54
54512;BME280;40419;47.438;19.026;2023-08-07T04:35:09;99050.94;;;15.78;97.77
54512;BME280;40419;47.438;19.026;2023-08-07T04:37:39;99046.16;;;15.90;97.03
54512;BME280;40419;47.438;19.026;2023-08-07T04:40:10;99049.25;;;15.99;95.42
54512;BME280;40419;47.438;19.026;2023-08-07T04:42:38;99050.47;;;15.86;94.43
54512;BME280;40419;47.438;19.026;2023-08-07T04:45:03;99050.72;;;15.85;96.79
54512;BME280;40419;47.438;19.026;2023-08-07T04:47:29;99055.75;;;15.93;95.76
54512;BME280;40419;47.438;19.026;2023-08-07T04:49:59;99039.84;;;16.17;92.75
54512;BME280;40419;47.438;19.026;2023-08-07T04:52:27;99049.41;;;16.20;96.42
54512;BME280;40419;47.438;19.026;2023-08-07T04:54:53;99048.38;;;16.26;93.38
54512;BME280;40419;47.438;19.026;2023-08-07T04:57:20;99050.50;;;16.19;94.37
54512;BME280;40419;47.438;19.026;2023-08-07T04:59:51;99056.97;;;16.40;94.51
54512;BME280;40419;47.438;19.026;2023-08-07T05:02:19;99053.13;;;16.41;91.30
54512;BME280;40419;47.438;19.026;2023-08-07T05:04:52;99045.16;;;16.29;92.85
54512;BME280;40419;47.438;19.026;2023-08-07T05:07:17;99044.31;;;16.28;91.41
54512;BME280;40419;47.438;19.026;2023-08-07T05:09:48;99044.94;;;16.41;94.05
54512;BME280;40419;47.438;19.026;2023-08-07T05:12:17;99057.06;;;16.50;90.56
54512;BME280;40419;47.438;19.026;2023-08-07T05:14:47;99052.22;;;16.62;90.37
54512;BME280;40419;47.438;19.026;2023-08-07T05:17:14;99047.50;;;16.53;91.59
54512;BME280;40419;47.438;19.026;2023-08-07T05:19:44;99055.06;;;16.78;90.56
54512;BME280;40419;47.438;19.026;2023-08-07T05:22:12;99057.13;;;16.60;90.99
54512;BME280;40419;47.438;19.026;2023-08-07T05:24:38;99061.06;;;16.80;90.24
54512;BME280;40419;47.438;19.026;2023-08-07T05:27:08;99055.75;;;16.58;90.01
54512;BME280;40419;47.438;19.026;2023-08-07T05:29:34;99064.91;;;16.79;90.29
54512;BME280;40419;47.438;19.026;2023-08-07T05:32:08;99072.06;;;16.85;90.58
54512;BME280;40419;47.438;19.026;2023-08-07T05:34:34;99075.44;;;16.97;84.68
54512;BME280;40419;47.438;19.026;2023-08-07T05:36:59;99072.16;;;16.58;86.32
54512;BME280;40419;47.438;19.026;2023-08-07T05:39:30;99077.16;;;16.34;90.93
54512;BME280;40419;47.438;19.026;2023-08-07T05:41:56;99080.97;;;16.38;91.85
54512;BME280;40419;47.438;19.026;2023-08-07T05:44:26;99086.19;;;16.39;88.42
54512;BME280;40419;47.438;19.026;2023-08-07T05:46:56;99082.72;;;16.49;84.61
54512;BME280;40419;47.438;19.026;2023-08-07T05:49:21;99088.00;;;16.28;87.87
54512;BME280;40419;47.438;19.026;2023-08-07T05:51:47;99090.97;;;16.54;87.15
54512;BME280;40419;47.438;19.026;2023-08-07T05:54:15;99104.47;;;17.04;78.98
54512;BME280;40419;47.438;19.026;2023-08-07T05:56:42;99104.28;;;17.21;78.76
54512;BME280;40419;47.438;19.026;2023-08-07T05:59:10;99117.50;;;17.34;82.99
54512;BME280;40419;47.438;19.026;2023-08-07T06:01:35;99113.28;;;17.16;82.10
54512;BME280;40419;47.438;19.026;2023-08-07T06:04:02;99114.97;;;17.22;82.37
54512;BME280;40419;47.438;19.026;2023-08-07T06:06:30;99110.84;;;17.73;78.24
54512;BME280;40419;47.438;19.026;2023-08-07T06:09:02;99123.94;;;17.65;75.60
54512;BME280;40419;47.438;19.026;2023-08-07T06:11:32;99124.91;;;17.97;79.40
54512;BME280;40419;47.438;19.026;2023-08-07T06:14:00;99123.81;;;18.08;77.88
54512;BME280;40419;47.438;19.026;2023-08-07T06:16:28;99128.50;;;18.23;76.08
54512;BME280;40419;47.438;19.026;2023-08-07T06:18:56;99118.91;;;18.15;75.78
54512;BME280;40419;47.438;19.026;2023-08-07T06:21:24;99138.34;;;17.98;72.41
54512;BME280;40419;47.438;19.026;2023-08-07T06:23:52;99130.00;;;17.73;72.70
54512;BME280;40419;47.438;19.026;2023-08-07T06:26:18;99132.22;;;17.23;79.17
54512;BME280;40419;47.438;19.026;2023-08-07T06:28:50;99132.56;;;17.36;82.28
54512;BME280;40419;47.438;19.026;2023-08-07T06:31:16;99134.72;;;17.34;74.92
54512;BME280;40419;47.438;19.026;2023-08-07T06:33:44;99135.72;;;17.18;75.03
54512;BME280;40419;47.438;19.026;2023-08-07T06:36:10;99144.53;;;16.88;77.73
54512;BME280;40419;47.438;19.026;2023-08-07T06:38:37;99141.72;;;17.15;76.10
54512;BME280;40419;47.438;19.026;2023-08-07T06:41:04;99144.50;;;17.20;74.77
54512;BME280;40419;47.438;19.026;2023-08-07T06:43:29;99135.41;;;17.09;78.33
54512;BME280;40419;47.438;19.026;2023-08-07T06:45:59;99137.09;;;17.21;74.76
54512;BME280;40419;47.438;19.026;2023-08-07T06:48:26;99155.09;;;17.06;77.46
54512;BME280;40419;47.438;19.026;2023-08-07T06:50:55;99149.56;;;17.01;81.78
54512;BME280;40419;47.438;19.026;2023-08-07T06:53:21;99150.44;;;17.12;81.99
54512;BME280;40419;47.438;19.026;2023-08-07T06:55:48;99161.91;;;17.09;81.15
54512;BME280;40419;47.438;19.026;2023-08-07T06:58:19;99166.34;;;17.15;84.77
54512;BME280;40419;47.438;19.026;2023-08-07T07:00:45;99166.22;;;16.94;83.11
54512;BME280;40419;47.438;19.026;2023-08-07T07:03:14;99170.00;;;16.88;80.30
54512;BME280;40419;47.438;19.026;2023-08-07T07:05:42;99169.56;;;17.02;78.98
54512;BME280;40419;47.438;19.026;2023-08-07T07:08:10;99163.34;;;17.16;78.62
54512;BME280;40419;47.438;19.026;2023-08-07T07:10:37;99171.22;;;17.08;81.19
54512;BME280;40419;47.438;19.026;2023-08-07T07:13:06;99161.53;;;17.32;82.45
54512;BME280;40419;47.438;19.026;2023-08-07T07:15:38;99169.28;;;17.46;78.36
54512;BME280;40419;47.438;19.026;2023-08-07T07:18:06;99167.88;;;17.43;81.50
54512;BME280;40419;47.438;19.026;2023-08-07T07:20:36;99165.31;;;17.79;82.04
54512;BME280;40419;47.438;19.026;2023-08-07T07:23:05;99168.69;;;17.92;77.30
54512;BME280;40419;47.438;19.026;2023-08-07T07:25:30;99172.56;;;18.01;73.73
54512;BME280;40419;47.438;19.026;2023-08-07T07:27:59;99179.59;;;17.86;77.47
54512;BME280;40419;47.438;19.026;2023-08-07T07:30:24;99171.47;;;18.02;72.54
54512;BME280;40419;47.438;19.026;2023-08-07T07:32:50;99178.53;;;17.87;73.65
54512;BME280;40419;47.438;19.026;2023-08-07T07:35:16;99167.66;;;18.03;74.37
54512;BME280;40419;47.438;19.026;2023-08-07T07:37:44;99173.75;;;18.26;74.77
54512;BME280;40419;47.438;19.026;2023-08-07T07:40:10;99180.50;;;17.97;77.05
54512;BME280;40419;47.438;19.026;2023-08-07T07:42:35;99179.41;;;17.98;80.72
54512;BME280;40419;47.438;19.026;2023-08-07T07:45:01;99186.59;;;18.15;79.99
54512;BME280;40419;47.438;19.026;2023-08-07T07:47:26;99188.03;;;18.48;75.77
54512;BME280;40419;47.438;19.026;2023-08-07T07:50:05;99203.38;;;18.39;76.45
54512;BME280;40419;47.438;19.026;2023-08-07T07:52:34;99203.69;;;18.63;74.63
54512;BME280;40419;47.438;19.026;2023-08-07T07:54:59;99198.81;;;18.86;74.26
54512;BME280;40419;47.438;19.026;2023-08-07T07:57:31;99213.56;;;19.36;73.45
54512;BME280;40419;47.438;19.026;2023-08-07T07:59:56;99207.00;;;19.32;65.53
54512;BME280;40419;47.438;19.026;2023-08-07T08:02:27;99217.19;;;19.06;65.54
54512;BME280;40419;47.438;19.026;2023-08-07T08:04:54;99219.06;;;19.36;65.66
54512;BME280;40419;47.438;19.026;2023-08-07T08:07:25;99219.63;;;19.43;67.58
54512;BME280;40419;47.438;19.026;2023-08-07T08:09:52;99234.16;;;19.23;69.32
54512;BME280;40419;47.438;19.026;2023-08-07T08:12:21;99219.63;;;19.12;71.35
54512;BME280;40419;47.438;19.026;2023-08-07T08:14:47;99227.81;;;18.71;67.86
54512;BME280;40419;47.438;19.026;2023-08-07T08:17:15;99223.19;;;18.98;70.49
54512;BME280;40419;47.438;19.026;2023-08-07T08:19:43;99228.16;;;19.06;66.00
54512;BME280;40419;47.438;19.026;2023-08-07T08:22:08;99234.44;;;19.06;68.48
54512;BME280;40419;47.438;19.026;2023-08-07T08:24:36;99237.75;;;19.13;66.60
54512;BME280;40419;47.438;19.026;2023-08-07T08:27:08;99233.34;;;19.07;64.86
54512;BME280;40419;47.438;19.026;2023-08-07T08:29:33;99229.22;;;19.05;66.08
54512;BME280;40419;47.438;19.026;2023-08-07T08:32:01;99235.81;;;19.19;61.98
54512;BME280;40419;47.438;19.026;2023-08-07T08:34:31;99241.31;;;19.24;62.76
54512;BME280;40419;47.438;19.026;2023-08-07T08:36:59;99244.53;;;18.70;66.14
54512;BME280;40419;47.438;19.026;2023-08-07T08:39:29;99247.56;;;18.63;67.12
54512;BME280;40419;47.438;19.026;2023-08-07T08:41:54;99247.81;;;18.72;63.89
54512;BME280;40419;47.438;19.026;2023-08-07T08:44:22;99262.41;;;18.83;69.51
54512;BME280;40419;47.438;19.026;2023-08-07T08:46:53;99261.31;;;18.94;65.12
54512;BME280;40419;47.438;19.026;2023-08-07T08:49:28;99262.63;;;18.76;66.79
54512;BME280;40419;47.438;19.026;2023-08-07T08:51:56;99263.44;;;18.56;69.37
54512;BME280;40419;47.438;19.026;2023-08-07T08:54:22;99275.00;;;18.78;66.16
54512;BME280;40419;47.438;19.026;2023-08-07T08:56:50;99277.28;;;18.18;70.70
54512;BME280;40419;47.438;19.026;2023-08-07T08:59:21;99280.09;;;18.39;69.63
54512;BME280;40419;47.438;19.026;2023-08-07T09:01:48;99282.59;;;18.51;71.31
54512;BME280;40419;47.438;19.026;2023-08-07T09:04:16;99277.16;;;18.71;69.26
54512;BME280;40419;47.438;19.026;2023-08-07T09:06:46;99278.28;;;18.75;68.86
54512;BME280;40419;47.438;19.026;2023-08-07T09:09:13;99277.78;;;18.89;70.94
54512;BME280;40419;47.438;19.026;2023-08-07T09:11:45;99284.44;;;18.30;68.18
54512;BME280;40419;47.438;19.026;2023-08-07T09:14:20;99281.19;;;18.43;71.57
54512;BME280;40419;47.438;19.026;2023-08-07T09:16:48;99291.88;;;18.45;70.48
54512;BME280;40419;47.438;19.026;2023-08-07T09:19:16;99280.34;;;18.32;69.80
54512;BME280;40419;47.438;19.026;2023-08-07T09:21:44;99290.22;;;18.33;69.43
54512;BME280;40419;47.438;19.026;2023-08-07T09:24:10;99289.91;;;18.30;70.28
54512;BME280;40419;47.438;19.026;2023-08-07T09:26:39;99283.03;;;18.17;72.18
54512;BME280;40419;47.438;19.026;2023-08-07T09:29:07;99276.94;;;18.04;68.48
54512;BME280;40419;47.438;19.026;2023-08-07T09:31:38;99279.94;;;18.82;68.35
54512;BME280;40419;47.438;19.026;2023-08-07T09:34:04;99286.31;;;19.23;66.35
54512;BME280;40419;47.438;19.026;2023-08-07T09:36:33;99286.56;;;19.32;68.25
54512;BME280;40419;47.438;19.026;2023-08-07T09:39:02;99289.03;;;18.92;65.37
54512;BME280;40419;47.438;19.026;2023-08-07T09:41:33;99295.63;;;19.63;64.72
54512;BME280;40419;47.438;19.026;2023-08-07T09:44:05;99286.03;;;19.40;66.88
54512;BME280;40419;47.438;19.026;2023-08-07T09:46:31;99297.56;;;19.53;63.61
54512;BME280;40419;47.438;19.026;2023-08-07T09:49:02;99297.28;;;19.03;65.02
54512;BME280;40419;47.438;19.026;2023-08-07T09:51:41;99301.94;;;19.02;65.51
54512;BME280;40419;47.438;19.026;2023-08-07T09:54:09;99304.13;;;19.16;66.38
54512;BME280;40419;47.438;19.026;2023-08-07T09:56:43;99306.59;;;19.17;66.28
54512;BME280;40419;47.438;19.026;2023-08-07T09:59:11;99306.34;;;19.34;62.34
54512;BME280;40419;47.438;19.026;2023-08-07T10:01:39;99310.91;;;18.77;65.41
54512;BME280;40419;47.438;19.026;2023-08-07T10:04:08;99320.06;;;19.13;65.50
54512;BME280;40419;47.438;19.026;2023-08-07T10:06:33;99315.94;;;19.37;66.95
54512;BME280;40419;47.438;19.026;2023-08-07T10:09:00;99312.94;;;19.02;66.10
54512;BME280;40419;47.438;19.026;2023-08-07T10:11:29;99317.59;;;19.53;67.04
54512;BME280;40419;47.438;19.026;2023-08-07T10:14:00;99315.66;;;19.38;67.01
54512;BME280;40419;47.438;19.026;2023-08-07T10:16:31;99314.97;;;18.59;65.33
54512;BME280;40419;47.438;19.026;2023-08-07T10:18:59;99312.38;;;18.27;66.12
54512;BME280;40419;47.438;19.026;2023-08-07T10:21:29;99317.34;;;18.35;67.51
54512;BME280;40419;47.438;19.026;2023-08-07T10:23:59;99320.28;;;18.91;61.59
54512;BME280;40419;47.438;19.026;2023-08-07T10:26:27;99329.75;;;18.53;66.35
54512;BME280;40419;47.438;19.026;2023-08-07T10:28:53;99331.03;;;19.08;66.79
54512;BME280;40419;47.438;19.026;2023-08-07T10:31:22;99324.91;;;18.81;66.92
54512;BME280;40419;47.438;19.026;2023-08-07T10:33:49;99344.59;;;18.62;66.65
54512;BME280;40419;47.438;19.026;2023-08-07T10:36:18;99323.97;;;18.44;65.49
54512;BME280;40419;47.438;19.026;2023-08-07T10:38:44;99331.59;;;19.05;66.10
54512;BME280;40419;47.438;19.026;2023-08-07T10:41:13;99330.75;;;19.15;62.91
54512;BME280;40419;47.438;19.026;2023-08-07T10:43:43;99332.44;;;19.78;63.74
54512;BME280;40419;47.438;19.026;2023-08-07T10:46:20;99328.84;;;19.67;61.57
54512;BME280;40419;47.438;19.026;2023-08-07T10:48:54;99325.81;;;19.63;62.68
54512;BME280;40419;47.438;19.026;2023-08-07T10:51:30;99326.34;;;19.76;60.33
54512;BME280;40419;47.438;19.026;2023-08-07T10:53:59;99339.25;;;20.01;60.46
54512;BME280;40419;47.438;19.026;2023-08-07T10:56:31;99345.56;;;20.17;60.39
54512;BME280;40419;47.438;19.026;2023-08-07T10:59:10;99335.44;;;19.81;62.59
54512;BME280;40419;47.438;19.026;2023-08-07T11:04:11;99345.03;;;19.53;63.44
54512;BME280;40419;47.438;19.026;2023-08-07T11:06:40;99374.13;;;19.23;64.78
54512;BME280;40419;47.438;19.026;2023-08-07T11:09:09;99367.25;;;19.05;70.05
54512;BME280;40419;47.438;19.026;2023-08-07T11:11:44;99363.47;;;19.47;64.99
54512;BME280;40419;47.438;19.026;2023-08-07T11:14:18;99351.06;;;19.14;65.73
54512;BME280;40419;47.438;19.026;2023-08-07T11:16:48;99375.16;;;18.91;67.77
54512;BME280;40419;47.438;19.026;2023-08-07T11:19:20;99361.03;;;18.67;68.48
54512;BME280;40419;47.438;19.026;2023-08-07T11:21:53;99370.66;;;18.70;70.23
54512;BME280;40419;47.438;19.026;2023-08-07T11:24:22;99372.75;;;18.47;70.06
54512;BME280;40419;47.438;19.026;2023-08-07T11:26:50;99389.41;;;18.35;71.40
54512;BME280;40419;47.438;19.026;2023-08-07T11:29:17;99366.44;;;17.94;71.06
54512;BME280;40419;47.438;19.026;2023-08-07T11:31:45;99383.00;;;18.14;74.23
54512;BME280;40419;47.438;19.026;2023-08-07T11:34:20;99392.50;;;18.49;70.87
54512;BME280;40419;47.438;19.026;2023-08-07T11:36:51;99388.28;;;18.26;69.11
54512;BME280;40419;47.438;19.026;2023-08-07T11:39:19;99383.84;;;17.82;69.81
54512;BME280;40419;47.438;19.026;2023-08-07T11:41:47;99398.09;;;17.84;72.34
54512;BME280;40419;47.438;19.026;2023-08-07T11:44:15;99384.97;;;17.54;74.53
54512;BME280;40419;47.438;19.026;2023-08-07T11:46:44;99391.38;;;17.38;76.47
54512;BME280;40419;47.438;19.026;2023-08-07T11:49:15;99392.09;;;17.55;75.03
54512;BME280;40419;47.438;19.026;2023-08-07T11:51:41;99393.63;;;17.13;76.47
54512;BME280;40419;47.438;19.026;2023-08-07T11:54:06;99386.28;;;17.19;78.05
54512;BME280;40419;47.438;19.026;2023-08-07T11:56:35;99392.00;;;17.45;81.81
54512;BME280;40419;47.438;19.026;2023-08-07T11:59:07;99397.50;;;17.77;75.64
54512;BME280;40419;47.438;19.026;2023-08-07T12:01:38;99404.41;;;17.52;79.06
54512;BME280;40419;47.438;19.026;2023-08-07T12:04:09;99389.50;;;17.38;78.82
54512;BME280;40419;47.438;19.026;2023-08-07T12:06:37;99391.88;;;17.62;77.96
54512;BME280;40419;47.438;19.026;2023-08-07T12:09:07;99386.41;;;17.29;78.16
54512;BME280;40419;47.438;19.026;2023-08-07T12:11:38;99399.06;;;17.68;74.11
54512;BME280;40419;47.438;19.026;2023-08-07T12:14:03;99402.97;;;17.45;76.64
54512;BME280;40419;47.438;19.026;2023-08-07T12:16:35;99390.88;;;17.13;76.83
54512;BME280;40419;47.438;19.026;2023-08-07T12:19:03;99389.28;;;17.45;78.13
54512;BME280;40419;47.438;19.026;2023-08-07T12:21:32;99391.59;;;17.58;74.25
54512;BME280;40419;47.438;19.026;2023-08-07T12:23:59;99393.81;;;17.61;73.83
54512;BME280;40419;47.438;19.026;2023-08-07T12:26:25;99388.72;;;17.43;74.63
54512;BME280;40419;47.438;19.026;2023-08-07T12:28:52;99390.16;;;17.50;74.23
54512;BME280;40419;47.438;19.026;2023-08-07T12:31:20;99388.41;;;17.71;74.78
54512;BME280;40419;47.438;19.026;2023-08-07T12:33:48;99390.34;;;18.09;71.33
54512;BME280;40419;47.438;19.026;2023-08-07T12:36:16;99405.63;;;17.99;72.81
54512;BME280;40419;47.438;19.026;2023-08-07T12:38:41;99404.50;;;17.63;76.23
54512;BME280;40419;47.438;19.026;2023-08-07T12:41:11;99417.50;;;17.45;73.60
54512;BME280;40419;47.438;19.026;2023-08-07T12:43:39;99406.97;;;17.32;77.55
54512;BME280;40419;47.438;19.026;2023-08-07T12:46:07;99416.94;;;17.76;77.23
54512;BME280;40419;47.438;19.026;2023-08-07T12:48:32;99412.50;;;17.69;75.81
54512;BME280;40419;47.438;19.026;2023-08-07T12:50:58;99409.63;;;17.86;71.85
54512;BME280;40419;47.438;19.026;2023-08-07T12:53:23;99413.84;;;17.67;76.87
54512;BME280;40419;47.438;19.026;2023-08-07T12:55:49;99418.75;;;17.65;76.18
54512;BME280;40419;47.438;19.026;2023-08-07T12:58:17;99413.41;;;17.80;76.84
54512;BME280;40419;47.438;19.026;2023-08-07T13:00:50;99419.06;;;17.68;75.12
54512;BME280;40419;47.438;19.026;2023-08-07T13:03:16;99428.59;;;17.93;75.40
54512;BME280;40419;47.438;19.026;2023-08-07T13:05:41;99430.69;;;17.86;71.88
54512;BME280;40419;47.438;19.026;2023-08-07T13:08:09;99437.06;;;17.32;76.22
54512;BME280;40419;47.438;19.026;2023-08-07T13:10:39;99433.16;;;17.28;78.87